Flight Track Log - Related Links

Times and Time Zones

All times are in EST time to prevent confusion due to time zone crossing. See the AMF1324 flight status page for this flight to view local times or setup timezone preferences in your user account.

Time Position Orientation Groundspeed Altitude Reporting Facility
EST Latitude Longitude Course Direction KTS MPH feet Rate Location/Type
Thu 08:15:44 AM 42.1636 -75.9689 297° West 261 300 3,900  Level New Center
Thu 08:16:44 AM 42.1231 -75.9908 202° Southwest 209 241 5,500 1,700 Climbing New Center
Thu 08:17:44 AM 42.1331 -76.0478 283° West 168 193 7,300 1,300 Climbing New Center
Thu 08:18:44 AM 42.1428 -76.1072 282° West 168 193 8,100 1,250 Climbing New Center
Thu 08:19:44 AM 42.1631 -76.1647 295° West 168 193 9,800 1,600 Climbing New Center
Thu 08:20:44 AM 42.1900 -76.2144 306° West 163 188 11,300 1,100 Climbing New Center
Thu 08:21:00 AM 42.2965 -76.2946 297° West  Level Estimated
Thu 08:21:44 AM 42.2186 -76.2728 304° West 168 193 12,000  Level New Center
Thu 08:22:44 AM 42.2467 -76.3397 300° West 185 213 12,000  Level New Center
Thu 08:23:21 AM 42.2647 -76.3750 305° West 211 243 12,000  Level Cleveland Center
Thu 08:24:23 AM 42.2994 -76.4503 302° West 211 243 12,000  Level Cleveland Center
Thu 08:25:25 AM 42.3328 -76.5144 305° West 209 241 12,000  Level Cleveland Center
Thu 08:26:27 AM 42.3583 -76.5844 296° West 207 238 12,000  Level Cleveland Center
Thu 08:27:29 AM 42.3883 -76.6519 301° West 211 243 12,000  Level Cleveland Center
Thu 08:28:32 AM 42.4156 -76.7228 298° West 213 245 12,000  Level Cleveland Center
Thu 08:29:34 AM 42.4444 -76.7897 300° West 209 241 12,000  Level Cleveland Center
Thu 08:30:36 AM 42.4758 -76.8736 297° West 209 241 12,000  Level Cleveland Center
Thu 08:31:38 AM 42.5028 -76.9447 297° West 211 243 12,000  Level Cleveland Center
Thu 08:32:40 AM 42.5292 -77.0150 297° West 212 244 12,000  Level Cleveland Center
Thu 08:33:42 AM 42.5536 -77.0858 295° West 210 242 12,000  Level Cleveland Center
Thu 08:34:44 AM 42.5803 -77.1503 299° West 200 230 12,000  Level Cleveland Center
Thu 08:35:46 AM 42.6067 -77.2169 298° West 202 232 12,000  Level Cleveland Center
Thu 08:36:48 AM 42.6394 -77.2967 299° West 202 232 12,000  Level Cleveland Center
Thu 08:37:50 AM 42.6694 -77.3603 303° West 202 232 12,000  Level Cleveland Center
Thu 08:38:52 AM 42.6967 -77.4244 300° West 199 229 12,000  Level Cleveland Center
Thu 08:39:10 AM 42.7075 -77.4497 300° West 196 226 12,000 -97 Level Cleveland Center
Thu 08:39:54 AM 42.7267 -77.4856 306° West 198 228 11,900 -492 Descending Cleveland Center
Thu 08:40:11 AM 42.7411 -77.5131 306° West 201 231 11,500 -857 Descending Cleveland Center
Thu 08:40:57 AM 42.7642 -77.5664 301° West 214 246 11,000 -500 Descending Cleveland Center
Thu 08:41:11 AM 42.7711 -77.5844 298° West 215 247 11,000 -400 Level Cleveland Center
Thu 08:42:12 AM 42.8042 -77.6506 304° West 203 234 10,500 -764 Descending Cleveland Center
Thu 08:43:01 AM 42.8208 -77.7019 294° West 213 245 9,600 -1,164 Descending Cleveland Center
Thu 08:43:19 AM 42.8328 -77.7333 297° West 224 258 9,200 -871 Descending Cleveland Center
Thu 08:44:03 AM 42.8400 -77.7792 282° West 220 253 8,700 -1,075 Descending Cleveland Center
Thu 08:45:05 AM 42.8483 -77.8775 277° West 227 261 7,300 -1,210 Descending Cleveland Center
Thu 08:46:07 AM 42.8592 -77.9628 280° West 221 254 6,200 -968 Descending Cleveland Center
Thu 08:47:09 AM 42.8822 -78.0369 293° West 203 234 5,300 -919 Descending Cleveland Center
Thu 08:48:11 AM 42.9067 -78.0992 298° West 198 228 4,300 -629 Descending Cleveland Center
Thu 08:49:13 AM 42.9283 -78.1672 294° West 197 227 4,000 -145 Descending Cleveland Center
Thu 08:50:15 AM 42.9511 -78.2283 297° West 190 219 4,000  Level Cleveland Center
Thu 08:51:17 AM 42.9778 -78.3031 296° West 183 211 4,000  Level Cleveland Center
Thu 08:52:20 AM 43.0000 -78.3594 298° West 175 201 4,000 -240 Level Cleveland Center
Thu 08:53:22 AM 43.0206 -78.4197 295° West 174 200 3,500 -677 Descending Cleveland Center
Thu 08:54:24 AM 43.0417 -78.4736 298° West 168 193 2,600 -532 Descending Cleveland Center
Thu 08:55:26 AM 43.0408 -78.5356 269° West 168 193 2,400 -145 Descending Cleveland Center
Thu 08:56:28 AM 43.0369 -78.5825 264° West 146 168 2,300 -34 Descending Cleveland Center
Thu 08:58:25 AM 43.0000 -78.6500 233° Southwest 101 116 2,300 -197 Level Buffalo TRACON
Thu 08:59:31 AM 42.9833 -78.6833 236° Southwest 108 124 1,700 -571 Descending Buffalo TRACON
Thu 09:00:31 AM 42.9500 -78.7000 200° South 104 120 1,100 -600 Descending Buffalo TRACON

Login

Don't have an account? Register now (free) for customized features, flight alerts, and more!